ADDS TAF Board (Experimental) INFO Settings
IDs: Format: Expanded Condensed

KJFK - New York/Kennedy Int, NY, US

Issued at 1720 UTC 30 Aug 2016
Updated at 1850 UTC 30 Aug 2016
Time1751Z 30/19Z 30/20Z 30/21Z 30/22Z 30/23Z 31/00Z 31/01Z 31/02Z 31/03Z 31/04Z 31/05Z 31/06Z 31/07Z
Type OBS PRVL PRVL PRVL PRVL PRVL PRVL PRVL PRVL PRVL PRVL PRVL PRVL PRVL
VIS 10 >6 >6 >6 >6 >6 >6 >6 >6 >6 >6 >6 >6 >6
CIG -- -- -- -- -- -- -- -- 40 40 40 40 40 40
Cover SCT SCT SCT SCT SCT SCT SCT SCT BKN BKN BKN BKN BKN BKN
FltCat VFR VFR VFR VFR VFR VFR VFR VFR VFR VFR VFR VFR VFR VFR
WX -- -- -- -- -- -- -- -- -- -- -- -- -- --
WDir 210 160 160 160 160 160 160 160 190 190 190 190 190 190
WSpd 8 9 9 9 9 9 9 9 6 6 6 6 6 6
WGst -- -- -- -- -- -- -- -- -- -- -- -- -- --
R04/22
XWnd -0 -7 -7 -7 -7 -7 -7 -7 -2 -2 -2 -2 -2 -2
HWnd -8 -6 -6 -6 -6 -6 -6 -6 -6 -6 -6 -6 -6 -6
R13/31
XWnd -8 -6 -6 -6 -6 -6 -6 -6 -6 -6 -6 -6 -6 -6
HWnd 0 7 7 7 7 7 7 7 2 2 2 2 2 2

Raw TAF
KJFK 301720Z 3018/3124 16009KT P6SM SCT050 SCT250
  FM310200 19006KT P6SM BKN040
  FM310900 22005KT P6SM SCT010 BKN040
  FM311400 20009KT P6SM BKN040
  FM312000 18012KT P6SM BKN050


Raw METAR
KJFK 301751Z 21008KT 10SM FEW048 SCT280 28/18 A3014 RMK AO2 SLP204 T02780183 56014 $
KJFK 301651Z 14007KT 10SM FEW046 FEW210 SCT280 28/18 A3015 RMK AO2 SLP208 T02780178 $
KJFK 301551Z 17006KT 10SM FEW044 SCT260 27/18 A3016 RMK AO2 SLP213 T02670178 $

METAR Board
Radar Display
Forecast Discussion

TAF Board Legend

Potential Impact
Threat None Slight Moderate High
Visibility (sm) ≥5.1 5.1>X≥3 3>X≥1 <1
Ceiling (100 ft) ≥30.1 30.1>X≥10 10>X≥5 <5
Wind Speed (kt) <10 10≤X<20 20≤X<30 ≥30
Wind Gust (kt) <15 15≤X<25 25≤X<35 ≥35
Weather No Wx Reported VCTS,-TS,-FZRA,SN TS,FZRA +TS,+FZRA,+SN